Time;durP1;ratioP1;P1;durP2;ratioP2;P2;SDS_P1;SDS_P2;PMS_P1;PMS_P2;Temp;Humidity;BMP_temperature;BMP_pressure;BME280_temperature;BME280_humidity;BME280_pressure;Samples;Min_cycle;Max_cycle;Signal;HPM_P1;HPM_P2
2022/01/14 00:00:14;;;;;;;112.33;30.93;;;;;0.80;103334.00;;;;9893006;29;20771;-78
2022/01/14 00:05:16;;;;;;;122.30;35.10;;;;;0.70;103327.00;;;;9909757;29;20207;-78
2022/01/14 00:10:18;;;;;;;88.77;29.07;;;;;0.60;103323.00;;;;9889893;29;20234;-79
2022/01/14 00:15:24;;;;;;;85.37;26.73;;;;;0.50;103316.00;;;;9906522;29;20237;-79
2022/01/14 00:20:26;;;;;;;79.40;26.17;;;;;0.40;103306.00;;;;9909823;29;20219;-78
2022/01/14 00:35:58;;;;;;;44.20;22.33;;;;;0.10;103273.00;;;;9874217;29;20298;-78
2022/01/14 00:41:02;;;;;;;62.70;23.50;;;;;0.00;103276.00;;;;9900804;29;20315;-79
2022/01/14 00:46:04;;;;;;;49.23;24.60;;;;;-0.10;103272.00;;;;9882580;29;20264;-79
2022/01/14 00:51:06;;;;;;;43.27;21.57;;;;;-0.10;103267.00;;;;9862217;29;20280;-78
2022/01/14 00:56:21;;;;;;;46.43;24.80;;;;;-0.10;103269.00;;;;9875769;29;20219;-78
2022/01/14 01:01:23;;;;;;;43.40;23.07;;;;;-0.10;103261.00;;;;9899882;29;20724;-78
2022/01/14 01:06:25;;;;;;;45.70;24.30;;;;;-0.10;103258.00;;;;9894141;29;20350;-78
2022/01/14 01:11:35;;;;;;;45.23;25.87;;;;;-0.20;103257.00;;;;9899358;29;20249;-78
2022/01/14 01:16:37;;;;;;;39.77;23.00;;;;;-0.30;103254.00;;;;9870974;30;20240;-78
2022/01/14 01:21:39;;;;;;;44.57;26.37;;;;;-0.30;103254.00;;;;9856359;30;20219;-78
2022/01/14 01:26:42;;;;;;;58.33;28.47;;;;;-0.40;103258.00;;;;9874258;29;20264;-78
2022/01/14 01:31:45;;;;;;;47.03;26.20;;;;;-0.40;103255.00;;;;9868760;29;20258;-78
2022/01/14 01:36:50;;;;;;;43.43;22.93;;;;;-0.40;103253.00;;;;9900246;29;20729;-78
2022/01/14 01:41:55;;;;;;;39.40;22.63;;;;;-0.50;103252.00;;;;9929917;29;20626;-78
2022/01/14 01:46:58;;;;;;;40.47;22.07;;;;;-0.50;103241.00;;;;9930167;29;20214;-78
2022/01/14 01:52:02;;;;;;;40.27;23.37;;;;;-0.40;103236.00;;;;9915185;29;20199;-78
2022/01/14 01:57:04;;;;;;;36.53;21.70;;;;;-0.40;103245.00;;;;9900391;29;20231;-78
2022/01/14 02:02:06;;;;;;;40.77;21.57;;;;;-0.50;103233.00;;;;9899520;29;20231;-78
2022/01/14 02:07:09;;;;;;;41.77;23.60;;;;;-0.50;103235.00;;;;9907825;29;20283;-78
2022/01/14 02:12:11;;;;;;;36.83;21.07;;;;;-0.50;103237.00;;;;9900018;29;20211;-78
2022/01/14 02:17:27;;;;;;;37.87;22.80;;;;;-0.50;103225.00;;;;9898875;29;20203;-78
2022/01/14 02:22:29;;;;;;;39.37;23.23;;;;;-0.60;103233.00;;;;9916247;29;20219;-78
2022/01/14 02:27:31;;;;;;;37.80;22.57;;;;;-0.60;103223.00;;;;9921828;29;20202;-78
2022/01/14 02:32:33;;;;;;;32.37;20.80;;;;;-0.60;103220.00;;;;9936438;29;20195;-78
2022/01/14 02:37:35;;;;;;;34.00;21.10;;;;;-0.60;103219.00;;;;9920908;29;20210;-78
2022/01/14 02:42:37;;;;;;;33.53;20.97;;;;;-0.70;103214.00;;;;9921593;29;20276;-78
2022/01/14 02:47:39;;;;;;;38.50;22.77;;;;;-0.60;103211.00;;;;9906539;29;20239;-78
2022/01/14 02:57:57;;;;;;;36.17;21.50;;;;;-0.70;103196.00;;;;9921027;29;20256;-79
2022/01/14 03:03:00;;;;;;;35.97;21.50;;;;;-0.70;103190.00;;;;9935682;29;20218;-78
2022/01/14 03:08:03;;;;;;;33.80;20.20;;;;;-0.70;103192.00;;;;9920499;29;20295;-78
2022/01/14 03:13:05;;;;;;;32.97;22.37;;;;;-0.70;103188.00;;;;9905477;29;20238;-78
2022/01/14 03:18:07;;;;;;;42.43;21.53;;;;;-0.80;103189.00;;;;9905629;29;20614;-78
2022/01/14 03:23:11;;;;;;;42.80;23.53;;;;;-0.80;103181.00;;;;9905463;29;20254;-78
2022/01/14 03:28:13;;;;;;;42.07;22.17;;;;;-0.80;103181.00;;;;9932241;29;20727;-78
2022/01/14 03:33:16;;;;;;;64.90;28.90;;;;;-0.70;103175.00;;;;9884591;29;20253;-78
2022/01/14 03:38:18;;;;;;;68.47;30.70;;;;;-0.60;103184.00;;;;9882421;29;20203;-78
2022/01/14 03:43:20;;;;;;;69.50;31.63;;;;;-0.50;103173.00;;;;9896934;30;20276;-78
2022/01/14 03:48:22;;;;;;;77.27;32.57;;;;;-0.40;103179.00;;;;9882791;30;20200;-79
2022/01/14 03:53:24;;;;;;;69.53;32.83;;;;;-0.40;103170.00;;;;9881657;30;20203;-78
2022/01/14 03:58:26;;;;;;;77.50;33.37;;;;;-0.30;103175.00;;;;9880711;29;20203;-79
2022/01/14 04:03:28;;;;;;;86.93;33.33;;;;;-0.30;103181.00;;;;9926178;29;20218;-79
2022/01/14 04:08:30;;;;;;;83.90;34.67;;;;;-0.30;103174.00;;;;9903730;29;20227;-78
2022/01/14 04:18:42;;;;;;;72.77;35.40;;;;;-0.20;103181.00;;;;9918219;29;20257;-79
2022/01/14 04:23:45;;;;;;;67.90;33.17;;;;;-0.20;103191.00;;;;9917632;29;20219;-79
2022/01/14 04:28:47;;;;;;;68.83;32.53;;;;;-0.20;103179.00;;;;9903275;29;20203;-78
2022/01/14 04:33:49;;;;;;;72.83;33.37;;;;;-0.20;103184.00;;;;9932609;29;20203;-78
2022/01/14 04:38:51;;;;;;;80.47;34.03;;;;;-0.20;103187.00;;;;9888003;29;20219;-78
2022/01/14 04:43:53;;;;;;;83.00;35.13;;;;;-0.30;103180.00;;;;9916875;29;20218;-78
2022/01/14 04:48:56;;;;;;;76.03;35.13;;;;;-0.30;103176.00;;;;9916737;29;20203;-79
2022/01/14 04:53:58;;;;;;;76.63;36.43;;;;;-0.30;103170.00;;;;9901317;29;20201;-79
2022/01/14 04:59:00;;;;;;;75.93;34.47;;;;;-0.20;103154.00;;;;9907520;29;20734;-78
2022/01/14 05:04:02;;;;;;;77.73;36.60;;;;;-0.10;103144.00;;;;9939176;29;20218;-78
2022/01/14 05:09:15;;;;;;;80.73;37.77;;;;;-0.10;103132.00;;;;9909393;29;20630;-78
2022/01/14 05:14:17;;;;;;;95.57;38.80;;;;;0.00;103131.00;;;;9886874;29;20207;-79
2022/01/14 05:19:19;;;;;;;81.53;35.20;;;;;0.00;103122.00;;;;9892205;29;20252;-79
2022/01/14 05:24:23;;;;;;;84.90;36.37;;;;;0.00;103112.00;;;;9886435;29;20264;-79
2022/01/14 05:29:25;;;;;;;98.60;36.23;;;;;0.10;103110.00;;;;9916398;29;20256;-78
2022/01/14 05:34:27;;;;;;;86.83;36.07;;;;;0.10;103116.00;;;;9901564;29;20206;-78
2022/01/14 05:39:30;;;;;;;90.43;37.43;;;;;0.10;103131.00;;;;9901492;29;20240;-79
2022/01/14 05:44:32;;;;;;;87.97;38.27;;;;;0.20;103120.00;;;;9915715;29;20244;-79
2022/01/14 05:49:34;;;;;;;88.97;41.93;;;;;0.30;103115.00;;;;9918921;29;20198;-79
2022/01/14 05:54:37;;;;;;;94.20;41.97;;;;;0.30;103104.00;;;;9938252;29;20297;-79
2022/01/14 05:59:39;;;;;;;92.33;41.67;;;;;0.30;103101.00;;;;9958217;29;20198;-79
2022/01/14 06:04:42;;;;;;;97.07;41.57;;;;;0.40;103103.00;;;;9959924;29;20248;-78
2022/01/14 06:09:44;;;;;;;108.33;46.27;;;;;0.40;103104.00;;;;9925459;29;20576;-78
2022/01/14 06:14:46;;;;;;;107.30;45.33;;;;;0.40;103113.00;;;;9922081;29;20222;-78
2022/01/14 06:19:48;;;;;;;104.47;45.60;;;;;0.30;103110.00;;;;9922216;29;20207;-78
2022/01/14 06:24:56;;;;;;;107.53;41.57;;;;;0.20;103103.00;;;;9908253;29;20583;-79
2022/01/14 06:30:05;;;;;;;104.90;41.33;;;;;0.10;103114.00;;;;9923256;29;20203;-78
2022/01/14 06:35:15;;;;;;;90.47;42.30;;;;;0.00;103116.00;;;;9882775;30;20207;-78
2022/01/14 06:40:17;;;;;;;94.70;41.47;;;;;-0.10;103107.00;;;;9921966;29;20656;-78
2022/01/14 06:45:24;;;;;;;92.97;42.77;;;;;-0.20;103109.00;;;;9875160;29;20317;-79
2022/01/14 06:50:27;;;;;;;81.40;37.63;;;;;-0.30;103105.00;;;;9928598;29;20206;-78
2022/01/14 06:55:28;;;;;;;81.00;38.50;;;;;-0.30;103101.00;;;;9919722;29;20227;-78
2022/01/14 07:00:32;;;;;;;88.83;39.43;;;;;-0.40;103112.00;;;;9911731;29;20194;-78
2022/01/14 07:05:34;;;;;;;87.90;39.70;;;;;-0.40;103109.00;;;;9928309;29;20219;-78
2022/01/14 07:10:37;;;;;;;89.40;39.77;;;;;-0.40;103114.00;;;;9921238;29;20242;-79
2022/01/14 07:15:39;;;;;;;89.07;40.07;;;;;-0.50;103109.00;;;;9883139;30;20314;-78
2022/01/14 07:20:41;;;;;;;105.93;41.37;;;;;-0.50;103112.00;;;;9882931;30;20204;-78
2022/01/14 07:25:43;;;;;;;97.60;42.43;;;;;-0.50;103106.00;;;;9882142;30;20243;-79
2022/01/14 07:30:45;;;;;;;91.33;39.23;;;;;-0.50;103105.00;;;;9868100;30;20207;-79
2022/01/14 07:35:48;;;;;;;100.07;41.73;;;;;-0.50;103104.00;;;;9912337;30;20634;-78
2022/01/14 07:40:50;;;;;;;100.63;42.67;;;;;-0.40;103111.00;;;;9906182;30;20222;-78
2022/01/14 07:45:52;;;;;;;103.23;44.43;;;;;-0.30;103112.00;;;;9882238;30;20219;-78
2022/01/14 07:50:54;;;;;;;100.10;45.67;;;;;-0.20;103128.00;;;;9882318;30;20272;-79
2022/01/14 07:55:56;;;;;;;107.60;45.67;;;;;0.00;103113.00;;;;9867269;30;20200;-79
2022/01/14 08:00:58;;;;;;;115.90;49.00;;;;;0.10;103109.00;;;;9882054;30;20632;-78
2022/01/14 08:06:01;;;;;;;105.90;50.33;;;;;0.30;103108.00;;;;9880896;30;20195;-79
2022/01/14 08:11:04;;;;;;;116.97;50.73;;;;;0.50;103114.00;;;;9928424;29;20608;-78
2022/01/14 08:16:06;;;;;;;117.50;51.13;;;;;0.70;103111.00;;;;9941225;29;20206;-79
2022/01/14 08:21:08;;;;;;;115.93;51.60;;;;;0.80;103112.00;;;;9940092;29;20359;-79
2022/01/14 08:26:10;;;;;;;125.37;54.93;;;;;0.90;103128.00;;;;9940602;29;20259;-78
2022/01/14 08:31:14;;;;;;;120.50;53.67;;;;;1.10;103127.00;;;;9938983;29;20207;-78
2022/01/14 08:36:16;;;;;;;123.10;54.23;;;;;1.20;103134.00;;;;9902764;29;20209;-78
2022/01/14 08:41:19;;;;;;;129.80;58.97;;;;;1.20;103127.00;;;;9902900;29;20215;-79
2022/01/14 08:46:21;;;;;;;128.93;56.73;;;;;1.40;103124.00;;;;9902599;29;20203;-79
2022/01/14 08:51:23;;;;;;;126.57;58.60;;;;;1.60;103118.00;;;;9917223;29;20729;-78
2022/01/14 08:56:24;;;;;;;135.17;57.63;;;;;1.90;103115.00;;;;9917219;29;20202;-78
2022/01/14 09:01:27;;;;;;;147.40;63.00;;;;;2.20;103119.00;;;;9917201;29;20231;-79
2022/01/14 09:06:29;;;;;;;158.37;67.27;;;;;2.60;103125.00;;;;9917073;29;20234;-79
2022/01/14 09:11:31;;;;;;;155.30;76.90;;;;;3.20;103122.00;;;;9902605;29;20219;-79
2022/01/14 09:16:33;;;;;;;172.53;83.70;;;;;3.80;103116.00;;;;9902541;29;20199;-79
2022/01/14 09:21:37;;;;;;;149.40;75.90;;;;;4.20;103106.00;;;;9902927;29;20321;-79
2022/01/14 09:26:40;;;;;;;124.23;69.40;;;;;4.70;103108.00;;;;9917843;29;20214;-79
2022/01/14 09:31:42;;;;;;;98.40;62.07;;;;;5.00;103117.00;;;;9919133;29;20199;-79
2022/01/14 09:36:46;;;;;;;97.90;57.83;;;;;5.30;103117.00;;;;9924342;29;20627;-79
2022/01/14 09:41:48;;;;;;;57.60;38.87;;;;;5.50;103136.00;;;;9924213;29;20219;-79
2022/01/14 09:46:51;;;;;;;47.50;31.77;;;;;5.70;103152.00;;;;9924333;29;20663;-79
2022/01/14 09:51:53;;;;;;;51.03;30.63;;;;;5.90;103155.00;;;;9909505;29;20661;-79
2022/01/14 09:56:55;;;;;;;55.13;30.47;;;;;6.10;103145.00;;;;9923626;29;20209;-79
2022/01/14 10:01:57;;;;;;;51.00;31.43;;;;;6.40;103156.00;;;;9908698;29;20715;-79
2022/01/14 10:07:01;;;;;;;57.47;36.20;;;;;6.60;103136.00;;;;9908494;29;20227;-79
2022/01/14 10:12:13;;;;;;;63.77;38.53;;;;;6.90;103109.00;;;;9929498;29;20239;-79
2022/01/14 10:17:15;;;;;;;68.43;41.20;;;;;7.20;103104.00;;;;9944879;29;20202;-79
2022/01/14 10:22:18;;;;;;;74.83;43.23;;;;;7.40;103093.00;;;;9945017;29;20218;-79
2022/01/14 10:27:50;;;;;;;67.53;44.07;;;;;7.60;103103.00;;;;9929699;29;20206;-78
2022/01/14 10:33:13;;;;;;;77.17;44.07;;;;;7.90;103082.00;;;;9929405;29;20697;-79
2022/01/14 10:38:20;;;;;;;70.33;43.83;;;;;8.10;103075.00;;;;9912943;29;20203;-79
2022/01/14 10:43:31;;;;;;;58.63;37.50;;;;;8.30;103072.00;;;;9955685;29;20210;-79
2022/01/14 10:48:36;;;;;;;46.83;30.27;;;;;8.50;103072.00;;;;9943077;29;20293;-78
2022/01/14 10:53:53;;;;;;;37.90;24.97;;;;;8.70;103080.00;;;;9895566;30;20212;-79
2022/01/14 10:58:58;;;;;;;37.93;25.17;;;;;8.80;103071.00;;;;9884072;30;20254;-79
2022/01/14 11:04:10;;;;;;;36.23;24.23;;;;;9.00;103062.00;;;;9872051;30;20611;-79
2022/01/14 11:09:18;;;;;;;37.53;23.03;;;;;9.30;103044.00;;;;9899869;29;20238;-78
2022/01/14 11:14:19;;;;;;;31.67;20.50;;;;;9.40;103045.00;;;;9924870;29;20198;-79
2022/01/14 11:19:22;;;;;;;28.97;19.77;;;;;9.60;103034.00;;;;9957661;29;20278;-78
2022/01/14 11:24:30;;;;;;;29.07;19.43;;;;;9.70;103028.00;;;;9942755;29;20223;-78
2022/01/14 11:29:57;;;;;;;31.00;19.73;;;;;9.70;103046.00;;;;9975481;29;20195;-78
2022/01/14 11:34:59;;;;;;;26.57;20.37;;;;;9.80;103032.00;;;;9942588;29;20612;-79
2022/01/14 11:40:08;;;;;;;29.00;18.90;;;;;9.80;103040.00;;;;9899054;29;20203;-76
2022/01/14 11:45:15;;;;;;;29.90;19.50;;;;;9.70;103046.00;;;;9919015;29;20767;-79
2022/01/14 11:50:23;;;;;;;30.80;21.33;;;;;9.70;103045.00;;;;9890220;29;20297;-78
2022/01/14 11:55:29;;;;;;;35.90;22.50;;;;;9.90;103045.00;;;;9919455;29;20240;-78
2022/01/14 12:00:41;;;;;;;32.07;19.93;;;;;9.90;103038.00;;;;9919039;29;20256;-78
2022/01/14 12:05:49;;;;;;;31.63;19.37;;;;;9.80;103043.00;;;;9903894;29;20272;-79
2022/01/14 12:10:54;;;;;;;26.67;16.60;;;;;9.80;103046.00;;;;9918923;29;20613;-78
2022/01/14 12:16:03;;;;;;;31.50;18.87;;;;;9.90;103045.00;;;;9918614;29;20233;-78
2022/01/14 12:21:05;;;;;;;29.73;17.57;;;;;10.10;103031.00;;;;9903618;29;20667;-78
2022/01/14 12:26:16;;;;;;;23.57;16.13;;;;;10.10;103017.00;;;;9918383;29;20215;-78
2022/01/14 12:31:18;;;;;;;23.83;17.23;;;;;10.20;103001.00;;;;9902753;29;20216;-78
2022/01/14 12:36:22;;;;;;;25.80;15.87;;;;;10.40;103005.00;;;;9879791;29;20237;-79
2022/01/14 12:41:24;;;;;;;23.00;15.77;;;;;10.50;102999.00;;;;9930763;29;20207;-78
2022/01/14 12:46:40;;;;;;;26.87;15.90;;;;;10.40;103007.00;;;;9902397;29;20222;-78
2022/01/14 12:51:42;;;;;;;29.50;16.33;;;;;10.20;103011.00;;;;9902641;29;20190;-78
2022/01/14 12:56:52;;;;;;;26.17;17.03;;;;;10.00;103015.00;;;;9916928;29;20264;-78
2022/01/14 13:01:55;;;;;;;24.97;17.10;;;;;9.90;103005.00;;;;9902166;29;20255;-78
2022/01/14 13:07:08;;;;;;;22.40;17.23;;;;;10.00;103001.00;;;;9916284;29;20234;-78
2022/01/14 13:12:14;;;;;;;23.33;15.63;;;;;10.00;102991.00;;;;9916677;29;20210;-78
2022/01/14 13:17:28;;;;;;;22.97;14.77;;;;;10.00;103003.00;;;;9901492;29;20203;-78
2022/01/14 13:22:31;;;;;;;21.60;14.67;;;;;10.00;102999.00;;;;9916653;29;20676;-78
2022/01/14 13:27:40;;;;;;;24.87;15.13;;;;;9.80;102998.00;;;;9901396;29;20211;-78
2022/01/14 13:32:43;;;;;;;25.40;16.03;;;;;9.80;102984.00;;;;9941033;29;20203;-78
2022/01/14 13:37:46;;;;;;;24.00;15.13;;;;;9.80;102989.00;;;;9904376;29;20828;-78
2022/01/14 13:43:11;;;;;;;23.80;15.27;;;;;9.70;103003.00;;;;9915774;29;20267;-78
2022/01/14 13:48:22;;;;;;;25.93;16.00;;;;;9.40;102995.00;;;;9877906;29;20251;-78
2022/01/14 13:53:33;;;;;;;28.10;17.37;;;;;9.20;102987.00;;;;9915004;29;20208;-78
2022/01/14 13:58:36;;;;;;;21.77;15.33;;;;;9.10;102968.00;;;;9877024;29;20199;-78
2022/01/14 14:04:04;;;;;;;26.10;15.60;;;;;9.10;102974.00;;;;9895960;29;20599;-78
2022/01/14 14:09:13;;;;;;;23.93;14.20;;;;;9.00;102975.00;;;;9913837;29;20238;-78
2022/01/14 14:19:45;;;;;;;24.07;15.30;;;;;8.80;102962.00;;;;9902665;29;20302;-78
2022/01/14 14:25:04;;;;;;;26.80;15.87;;;;;8.60;102961.00;;;;9924986;29;20218;-79
2022/01/14 14:30:10;;;;;;;33.13;17.50;;;;;8.40;102938.00;;;;9896278;30;20211;-78
2022/01/14 14:35:17;;;;;;;27.67;18.93;;;;;8.20;102944.00;;;;9925714;29;20226;-79
2022/01/14 14:40:25;;;;;;;31.00;20.87;;;;;8.00;102945.00;;;;9905028;29;20261;-78
2022/01/14 14:45:29;;;;;;;29.60;21.30;;;;;7.90;102944.00;;;;9908170;29;20211;-78
2022/01/14 14:50:31;;;;;;;30.87;21.23;;;;;8.10;102944.00;;;;9922167;29;20195;-79
2022/01/14 14:55:34;;;;;;;33.03;21.57;;;;;8.20;102936.00;;;;9919879;29;20201;-78
2022/01/14 15:00:36;;;;;;;38.80;24.20;;;;;8.20;102940.00;;;;9902325;29;20695;-78
2022/01/14 15:05:39;;;;;;;41.23;23.27;;;;;7.90;102939.00;;;;9939135;29;20207;-78
2022/01/14 15:10:42;;;;;;;40.00;26.17;;;;;7.60;102938.00;;;;9896732;29;20225;-78
2022/01/14 15:16:12;;;;;;;44.83;28.60;;;;;7.30;102942.00;;;;9911799;29;20203;-78
2022/01/14 15:21:12;;;;;;;48.67;28.77;;;;;7.10;102948.00;;;;9916513;29;20233;-77
2022/01/14 15:26:13;;;;;;;47.77;30.63;;;;;6.90;102948.00;;;;9892072;29;20244;-79
2022/01/14 15:31:17;;;;;;;48.83;29.30;;;;;6.70;102935.00;;;;9919380;29;20217;-78
2022/01/14 15:36:21;;;;;;;52.47;30.03;;;;;6.60;102933.00;;;;9918885;29;20191;-79
2022/01/14 15:41:23;;;;;;;44.17;28.33;;;;;6.40;102928.00;;;;9947967;29;20214;-79
2022/01/14 15:46:25;;;;;;;54.63;32.33;;;;;6.30;102934.00;;;;9956284;29;20223;-78
2022/01/14 15:51:28;;;;;;;54.30;30.63;;;;;6.20;102931.00;;;;9904844;29;20238;-79
2022/01/14 15:56:32;;;;;;;56.60;31.60;;;;;6.00;102928.00;;;;9903212;29;20247;-79
2022/01/14 16:01:34;;;;;;;54.23;32.70;;;;;6.00;102916.00;;;;9917815;29;20572;-79
2022/01/14 16:06:36;;;;;;;50.93;32.63;;;;;5.90;102927.00;;;;9896273;29;20226;-79
2022/01/14 16:11:38;;;;;;;54.47;31.53;;;;;5.80;102927.00;;;;9912829;29;20215;-78
2022/01/14 16:16:41;;;;;;;52.40;30.73;;;;;5.70;102922.00;;;;9910642;29;20203;-79
2022/01/14 16:21:43;;;;;;;53.50;32.43;;;;;5.70;102922.00;;;;9917332;29;20238;-79
2022/01/14 16:26:47;;;;;;;56.43;34.30;;;;;5.70;102917.00;;;;9927965;29;20268;-79
2022/01/14 16:31:49;;;;;;;54.77;34.57;;;;;5.60;102919.00;;;;9887664;29;20206;-78
2022/01/14 16:36:51;;;;;;;62.63;35.07;;;;;5.70;102919.00;;;;9888999;29;20213;-79
2022/01/14 16:42:06;;;;;;;55.73;32.30;;;;;5.70;102923.00;;;;9890338;29;20660;-79
2022/01/14 16:47:11;;;;;;;53.00;31.63;;;;;5.60;102922.00;;;;9916058;29;20272;-78
2022/01/14 16:52:14;;;;;;;52.77;31.97;;;;;5.60;102938.00;;;;9917436;29;20687;-79
2022/01/14 16:57:18;;;;;;;60.80;34.00;;;;;5.70;102929.00;;;;9918319;29;20219;-79
2022/01/14 17:02:20;;;;;;;53.33;30.47;;;;;5.60;102924.00;;;;9932026;29;20264;-79
2022/01/14 17:07:22;;;;;;;55.23;32.80;;;;;5.60;102907.00;;;;9928224;29;20231;-79
2022/01/14 17:12:28;;;;;;;59.93;32.53;;;;;5.60;102901.00;;;;9911373;29;20882;-79
2022/01/14 17:17:30;;;;;;;50.77;32.10;;;;;5.60;102895.00;;;;9913449;29;20214;-78
2022/01/14 17:22:32;;;;;;;54.37;31.67;;;;;5.60;102898.00;;;;9903877;29;20227;-78
2022/01/14 17:27:35;;;;;;;59.87;33.37;;;;;5.60;102890.00;;;;9909983;29;20260;-78
2022/01/14 17:32:37;;;;;;;56.47;32.23;;;;;5.60;102891.00;;;;9905962;29;20249;-78
2022/01/14 17:37:39;;;;;;;57.40;32.63;;;;;5.60;102888.00;;;;9920958;29;20252;-78
2022/01/14 17:42:43;;;;;;;53.97;33.10;;;;;5.60;102882.00;;;;9911524;29;20203;-79
2022/01/14 17:47:45;;;;;;;57.50;34.43;;;;;5.50;102876.00;;;;9941074;29;20754;-78
2022/01/14 17:52:47;;;;;;;53.23;31.37;;;;;5.50;102860.00;;;;9926007;29;20821;-79
2022/01/14 17:57:49;;;;;;;51.97;32.33;;;;;5.50;102866.00;;;;9915242;29;20198;-78
2022/01/14 18:03:11;;;;;;;55.23;33.80;;;;;5.40;102861.00;;;;9932464;29;20225;-78
2022/01/14 18:08:13;;;;;;;63.07;33.97;;;;;5.40;102867.00;;;;9925049;29;20661;-78
2022/01/14 18:13:23;;;;;;;60.67;33.87;;;;;5.40;102856.00;;;;9907751;29;20195;-79
2022/01/14 18:18:25;;;;;;;62.13;36.60;;;;;5.40;102857.00;;;;9921239;29;20191;-79
2022/01/14 18:23:28;;;;;;;55.87;37.40;;;;;5.40;102859.00;;;;9920697;29;20837;-79
2022/01/14 18:28:30;;;;;;;57.13;34.43;;;;;5.30;102859.00;;;;9937916;29;20211;-78
2022/01/14 18:33:33;;;;;;;61.20;36.10;;;;;5.30;102849.00;;;;9869513;29;20195;-79
2022/01/14 18:38:35;;;;;;;60.80;37.17;;;;;5.30;102855.00;;;;9897653;29;20199;-79
2022/01/14 18:43:38;;;;;;;65.43;35.43;;;;;5.30;102860.00;;;;9913578;29;20298;-81
2022/01/14 18:48:41;;;;;;;61.43;34.37;;;;;5.20;102857.00;;;;9909340;29;20255;-79
2022/01/14 18:53:47;;;;;;;57.77;34.93;;;;;5.20;102856.00;;;;9916445;29;20187;-79
2022/01/14 18:58:50;;;;;;;60.23;34.07;;;;;5.20;102855.00;;;;9900532;29;20199;-78
2022/01/14 19:03:52;;;;;;;59.33;34.77;;;;;5.20;102853.00;;;;9891500;29;20714;-79
2022/01/14 19:08:54;;;;;;;59.47;36.33;;;;;5.20;102850.00;;;;9875569;29;20246;-78
2022/01/14 19:14:05;;;;;;;59.67;35.50;;;;;5.20;102842.00;;;;9898182;29;20278;-78
2022/01/14 19:19:13;;;;;;;64.07;34.43;;;;;5.20;102844.00;;;;9900228;29;20571;-78
2022/01/14 19:24:16;;;;;;;59.90;35.97;;;;;5.20;102847.00;;;;9901784;29;20314;-79
2022/01/14 19:29:21;;;;;;;57.83;35.13;;;;;5.20;102845.00;;;;9902025;29;20204;-79
2022/01/14 19:34:24;;;;;;;59.87;36.57;;;;;5.20;102837.00;;;;9895630;29;20268;-79
2022/01/14 19:39:26;;;;;;;63.03;36.33;;;;;5.20;102835.00;;;;9891925;29;20261;-79
2022/01/14 19:44:28;;;;;;;62.57;39.40;;;;;5.10;102835.00;;;;9898695;29;20280;-78
2022/01/14 19:49:31;;;;;;;60.50;35.33;;;;;5.20;102830.00;;;;9919108;29;20210;-78
2022/01/14 19:54:36;;;;;;;70.43;39.23;;;;;5.10;102824.00;;;;9900796;29;20192;-78
2022/01/14 19:59:39;;;;;;;62.83;37.00;;;;;5.10;102807.00;;;;9906535;29;20680;-79
2022/01/14 20:04:42;;;;;;;64.77;36.93;;;;;5.10;102805.00;;;;9895583;29;20256;-79
2022/01/14 20:09:44;;;;;;;63.27;37.87;;;;;5.10;102799.00;;;;9927223;29;20237;-79
2022/01/14 20:14:46;;;;;;;59.93;35.20;;;;;5.00;102796.00;;;;9920559;29;20203;-78
2022/01/14 20:19:48;;;;;;;65.90;36.73;;;;;5.00;102803.00;;;;9918243;29;20196;-78
2022/01/14 20:24:50;;;;;;;65.60;38.30;;;;;5.00;102795.00;;;;9920415;29;20676;-78
2022/01/14 20:29:56;;;;;;;65.10;37.00;;;;;5.00;102797.00;;;;9891326;29;20622;-79
2022/01/14 20:34:58;;;;;;;58.00;36.30;;;;;5.00;102788.00;;;;9893573;29;20621;-78
2022/01/14 20:40:04;;;;;;;65.00;37.67;;;;;5.00;102782.00;;;;9896645;29;20236;-79
2022/01/14 20:45:13;;;;;;;62.97;36.27;;;;;4.90;102783.00;;;;9917440;29;20203;-79
2022/01/14 20:50:18;;;;;;;67.60;37.03;;;;;4.90;102786.00;;;;9910049;29;20203;-79
2022/01/14 20:55:22;;;;;;;65.67;38.13;;;;;4.90;102775.00;;;;9905600;29;20200;-79
2022/01/14 21:00:29;;;;;;;64.50;37.10;;;;;4.90;102776.00;;;;9892924;29;20199;-79
2022/01/14 21:05:32;;;;;;;66.47;38.37;;;;;4.90;102772.00;;;;9915186;29;20542;-79
2022/01/14 21:10:36;;;;;;;64.53;36.23;;;;;4.80;102764.00;;;;9913435;29;20229;-79
2022/01/14 21:15:38;;;;;;;59.83;34.87;;;;;4.80;102764.00;;;;9897774;29;20252;-79
2022/01/14 21:20:56;;;;;;;59.60;35.00;;;;;4.80;102766.00;;;;9903852;29;20663;-78
2022/01/14 21:26:01;;;;;;;59.80;35.30;;;;;4.80;102763.00;;;;9905556;29;20232;-78
2022/01/14 21:31:17;;;;;;;55.60;34.67;;;;;4.80;102770.00;;;;9890698;29;20291;-78
2022/01/14 21:36:19;;;;;;;60.37;34.30;;;;;4.80;102786.00;;;;9887377;29;20199;-79
2022/01/14 21:41:22;;;;;;;59.37;35.17;;;;;4.80;102777.00;;;;9895439;29;20302;-78
2022/01/14 21:46:24;;;;;;;61.77;36.20;;;;;4.80;102776.00;;;;9877419;29;20203;-78
2022/01/14 21:51:26;;;;;;;62.67;35.87;;;;;4.80;102764.00;;;;9873702;29;20218;-79
2022/01/14 21:56:28;;;;;;;65.57;36.70;;;;;4.80;102772.00;;;;9877167;29;20199;-78
2022/01/14 22:01:30;;;;;;;66.97;36.50;;;;;4.70;102758.00;;;;9872478;29;20234;-78
2022/01/14 22:06:33;;;;;;;68.93;37.97;;;;;4.70;102768.00;;;;9895287;29;20243;-78
2022/01/14 22:11:36;;;;;;;64.50;37.23;;;;;4.70;102760.00;;;;9860953;29;20242;-79
2022/01/14 22:16:38;;;;;;;61.37;36.30;;;;;4.70;102758.00;;;;9900912;29;20207;-79
2022/01/14 22:21:40;;;;;;;60.87;36.13;;;;;4.70;102748.00;;;;9901586;29;20254;-78
2022/01/14 22:26:42;;;;;;;66.27;36.93;;;;;4.60;102741.00;;;;9912977;29;20285;-79
2022/01/14 22:31:44;;;;;;;66.03;37.67;;;;;4.60;102746.00;;;;9911932;29;20207;-78
2022/01/14 22:36:45;;;;;;;66.30;38.43;;;;;4.60;102747.00;;;;9883853;29;20203;-79
2022/01/14 22:41:48;;;;;;;66.43;35.43;;;;;4.50;102733.00;;;;9904912;29;20211;-79
2022/01/14 22:46:50;;;;;;;59.60;34.37;;;;;4.50;102729.00;;;;9892432;29;20295;-79
2022/01/14 22:51:53;;;;;;;63.33;34.83;;;;;4.50;102739.00;;;;9886328;29;20227;-78
2022/01/14 22:56:55;;;;;;;63.47;36.80;;;;;4.50;102731.00;;;;9887441;29;20621;-79
2022/01/14 23:01:59;;;;;;;63.97;36.10;;;;;4.50;102732.00;;;;9909360;29;20208;-78
2022/01/14 23:07:02;;;;;;;60.50;35.90;;;;;4.50;102729.00;;;;9888172;29;20289;-78
2022/01/14 23:12:05;;;;;;;65.17;36.43;;;;;4.50;102732.00;;;;9903567;29;20199;-79
2022/01/14 23:17:06;;;;;;;59.37;34.13;;;;;4.50;102722.00;;;;9920266;29;20199;-79
2022/01/14 23:22:10;;;;;;;61.97;35.33;;;;;4.40;102720.00;;;;9906044;29;20295;-79
2022/01/14 23:27:12;;;;;;;62.00;35.53;;;;;4.40;102713.00;;;;9919961;29;20218;-78
2022/01/14 23:32:14;;;;;;;57.20;32.87;;;;;4.40;102701.00;;;;9933100;29;20302;-79
2022/01/14 23:37:20;;;;;;;60.97;34.30;;;;;4.40;102695.00;;;;9922150;29;20199;-79
2022/01/14 23:42:23;;;;;;;63.30;35.23;;;;;4.30;102698.00;;;;9905118;29;20272;-79
2022/01/14 23:47:37;;;;;;;65.57;33.37;;;;;4.30;102695.00;;;;9921449;29;20211;-78
2022/01/14 23:52:42;;;;;;;63.10;36.23;;;;;4.30;102686.00;;;;9922657;29;20202;-78
2022/01/14 23:57:48;;;;;;;64.70;35.83;;;;;4.30;102679.00;;;;9900678;29;20191;-78
